Time;durP1;ratioP1;P1;durP2;ratioP2;P2;SDS_P1;SDS_P2;PMS_P1;PMS_P2;Temp;Humidity;BMP_temperature;BMP_pressure;BME280_temperature;BME280_humidity;BME280_pressure;Samples;Min_cycle;Max_cycle;Signal;HPM_P1;HPM_P2
2023/06/22 00:01:28;;;;;;;6.80;4.93;;;19.80;99.90;;;;;;5005350;28;20065;-41
2023/06/22 00:03:54;;;;;;;8.90;5.00;;;19.80;99.90;;;;;;5002219;28;20026;-41
2023/06/22 00:06:20;;;;;;;8.75;4.85;;;19.80;99.90;;;;;;5002742;28;20124;-40
2023/06/22 00:08:45;;;;;;;9.77;4.72;;;19.70;99.90;;;;;;5001315;28;20034;-40
2023/06/22 00:11:11;;;;;;;7.68;4.50;;;19.70;99.90;;;;;;5001272;28;20056;-40
2023/06/22 00:13:37;;;;;;;11.73;4.80;;;19.70;99.90;;;;;;4996181;28;20384;-41
2023/06/22 00:16:03;;;;;;;8.82;4.75;;;19.70;99.90;;;;;;5001145;28;20026;-38
2023/06/22 00:18:30;;;;;;;8.90;4.95;;;19.60;99.90;;;;;;4998163;28;20040;-38
2023/06/22 00:20:58;;;;;;;9.32;5.07;;;19.50;99.90;;;;;;5001040;28;20368;-41
2023/06/22 00:23:24;;;;;;;10.38;4.80;;;19.50;99.90;;;;;;4993399;28;20030;-41
2023/06/22 00:25:50;;;;;;;8.65;4.68;;;19.50;99.90;;;;;;5001663;28;20037;-37
2023/06/22 00:28:16;;;;;;;9.02;4.13;;;19.50;99.90;;;;;;5004305;28;20030;-39
2023/06/22 00:30:41;;;;;;;9.75;4.40;;;19.60;99.90;;;;;;4987096;28;20384;-41
2023/06/22 00:33:07;;;;;;;7.53;5.05;;;19.70;99.90;;;;;;5002584;28;20530;-41
2023/06/22 00:35:33;;;;;;;5.53;4.00;;;19.80;99.90;;;;;;4999552;28;20030;-39
2023/06/22 00:38:00;;;;;;;8.30;4.68;;;19.80;99.90;;;;;;5003245;28;20396;-41
2023/06/22 00:40:27;;;;;;;6.75;4.20;;;19.80;99.90;;;;;;5002701;28;20120;-41
2023/06/22 00:42:54;;;;;;;8.77;4.40;;;19.90;99.90;;;;;;5014337;28;20128;-40
2023/06/22 00:45:19;;;;;;;6.57;4.28;;;19.80;99.90;;;;;;5020700;28;20825;-41
2023/06/22 00:47:45;;;;;;;9.38;5.13;;;19.60;99.90;;;;;;5018341;28;20032;-39
2023/06/22 00:50:18;;;;;;;10.07;4.53;;;19.40;99.90;;;;;;5020662;28;20859;-40
2023/06/22 00:52:44;;;;;;;7.68;4.70;;;19.30;99.90;;;;;;5007194;28;20029;-41
2023/06/22 00:55:10;;;;;;;8.60;5.35;;;19.20;99.90;;;;;;5022959;28;20594;-41
2023/06/22 00:57:37;;;;;;;8.80;5.00;;;19.00;99.90;;;;;;5005999;28;20029;-41
2023/06/22 01:00:07;;;;;;;10.93;4.30;;;18.90;99.90;;;;;;5024118;28;20446;-40
2023/06/22 01:02:34;;;;;;;10.23;4.55;;;18.90;99.90;;;;;;5006673;28;20040;-39
2023/06/22 01:04:59;;;;;;;10.55;4.55;;;19.00;99.90;;;;;;5003113;28;20064;-41
2023/06/22 01:07:39;;;;;;;9.73;4.75;;;19.00;99.90;;;;;;5021503;28;20698;-41
2023/06/22 01:10:13;;;;;;;9.45;4.97;;;18.90;99.90;;;;;;5017791;28;20570;-37
2023/06/22 01:12:48;;;;;;;9.88;4.68;;;18.90;99.90;;;;;;5021743;28;20486;-35
2023/06/22 01:15:46;;;;;;;9.90;4.97;;;18.80;99.90;;;;;;5003014;28;20110;-41
2023/06/22 01:18:13;;;;;;;9.15;5.00;;;18.70;99.90;;;;;;5022668;28;20040;-41
2023/06/22 01:20:40;;;;;;;8.03;4.77;;;18.60;99.90;;;;;;5020475;28;20478;-41
2023/06/22 01:23:18;;;;;;;9.27;5.18;;;18.40;99.90;;;;;;5019948;28;20026;-39
2023/06/22 01:25:57;;;;;;;8.63;5.72;;;18.20;99.90;;;;;;5017021;28;20029;-41
2023/06/22 01:28:52;;;;;;;12.23;6.45;;;18.20;99.90;;;;;;5022557;28;20030;-41
2023/06/22 01:31:21;;;;;;;12.00;5.88;;;18.10;99.90;;;;;;5026570;28;20072;-41
2023/06/22 01:34:03;;;;;;;9.82;5.90;;;18.10;99.90;;;;;;5007453;28;20509;-39
2023/06/22 01:36:30;;;;;;;14.15;6.43;;;18.10;99.90;;;;;;5025525;28;20383;-41
2023/06/22 01:38:57;;;;;;;10.23;6.32;;;18.20;99.90;;;;;;5022508;28;20038;-41
2023/06/22 01:41:26;;;;;;;10.38;6.57;;;18.10;99.90;;;;;;5025247;28;20087;-39
2023/06/22 01:43:53;;;;;;;9.43;6.22;;;18.10;99.90;;;;;;5023455;28;20478;-39
2023/06/22 01:46:19;;;;;;;9.40;6.75;;;18.10;99.90;;;;;;5028698;28;20494;-41
2023/06/22 01:48:46;;;;;;;10.10;6.82;;;18.10;99.90;;;;;;5020983;28;20148;-39
2023/06/22 01:51:12;;;;;;;8.90;6.57;;;18.10;99.90;;;;;;5004832;28;20127;-41
2023/06/22 01:53:38;;;;;;;12.20;7.32;;;18.10;99.90;;;;;;5017888;28;20475;-41
2023/06/22 01:56:04;;;;;;;12.15;6.30;;;18.10;99.90;;;;;;5027852;28;20107;-37
2023/06/22 01:58:31;;;;;;;11.73;6.57;;;18.10;99.90;;;;;;5025039;28;20621;-41
2023/06/22 02:01:12;;;;;;;12.70;6.30;;;18.10;99.90;;;;;;5024680;28;20124;-40
2023/06/22 02:03:43;;;;;;;9.10;6.22;;;18.10;99.90;;;;;;5021675;28;20037;-41
2023/06/22 02:06:16;;;;;;;12.38;6.35;;;18.10;99.90;;;;;;5023376;28;20037;-39
2023/06/22 02:08:48;;;;;;;11.60;6.63;;;18.10;99.90;;;;;;5022391;28;20061;-41
2023/06/22 02:11:16;;;;;;;11.30;6.68;;;18.20;99.90;;;;;;5004397;28;20073;-38
2023/06/22 02:13:42;;;;;;;9.77;6.65;;;18.20;99.90;;;;;;5023152;28;20063;-40
2023/06/22 02:16:12;;;;;;;11.18;6.53;;;18.20;99.90;;;;;;5024407;28;20041;-40
2023/06/22 02:18:40;;;;;;;12.00;6.38;;;18.20;99.90;;;;;;5018940;28;20029;-40
2023/06/22 02:21:06;;;;;;;9.03;6.23;;;18.10;99.90;;;;;;5020470;28;20034;-40
2023/06/22 02:23:34;;;;;;;11.85;7.10;;;18.10;99.90;;;;;;5021175;28;20051;-41
2023/06/22 02:26:01;;;;;;;12.93;6.72;;;18.10;99.90;;;;;;5023857;28;20038;-40
2023/06/22 02:28:26;;;;;;;9.05;6.60;;;18.00;99.90;;;;;;5022591;28;20037;-37
2023/06/22 02:30:52;;;;;;;10.10;6.45;;;18.00;99.90;;;;;;5017465;28;20079;-40
2023/06/22 02:33:17;;;;;;;12.35;6.22;;;18.00;99.90;;;;;;5021759;28;21348;-40
2023/06/22 02:35:47;;;;;;;13.25;6.60;;;18.00;99.90;;;;;;5022355;28;20137;-39
2023/06/22 02:38:13;;;;;;;10.00;6.13;;;17.90;99.90;;;;;;5025923;28;20459;-40
2023/06/22 02:40:39;;;;;;;10.55;6.05;;;17.90;99.90;;;;;;5006613;28;20124;-39
2023/06/22 02:43:04;;;;;;;13.73;5.88;;;17.90;99.90;;;;;;5026377;28;20513;-41
2023/06/22 02:45:30;;;;;;;12.18;6.38;;;17.90;99.90;;;;;;5023400;28;20526;-39
2023/06/22 02:47:56;;;;;;;10.88;6.78;;;17.90;99.90;;;;;;5024127;28;20033;-41
2023/06/22 02:50:21;;;;;;;9.55;6.55;;;17.90;99.90;;;;;;5018887;28;20107;-37
2023/06/22 02:52:47;;;;;;;10.57;5.97;;;17.90;99.90;;;;;;5024909;28;20029;-40
2023/06/22 02:55:13;;;;;;;11.25;6.32;;;17.90;99.90;;;;;;5016714;28;20040;-41
2023/06/22 02:57:43;;;;;;;11.55;6.18;;;17.90;99.90;;;;;;5020125;28;20556;-41
2023/06/22 03:00:19;;;;;;;9.30;5.57;;;17.70;99.90;;;;;;5021155;28;20480;-41
2023/06/22 03:02:46;;;;;;;11.40;6.70;;;17.70;99.90;;;;;;5021100;28;20041;-40
2023/06/22 03:05:13;;;;;;;11.57;5.55;;;17.60;99.90;;;;;;5022734;28;20040;-41
2023/06/22 03:07:42;;;;;;;11.48;6.47;;;17.60;99.90;;;;;;5025850;28;20033;-40
2023/06/22 03:10:13;;;;;;;12.90;6.95;;;17.60;99.90;;;;;;5023780;28;20034;-40
2023/06/22 03:12:39;;;;;;;10.40;6.05;;;17.60;99.90;;;;;;5023223;28;20580;-40
2023/06/22 03:15:10;;;;;;;11.73;6.13;;;17.50;99.90;;;;;;5022746;28;20037;-41
2023/06/22 03:17:36;;;;;;;13.50;6.38;;;17.50;99.90;;;;;;5024156;28;20505;-41
2023/06/22 03:20:10;;;;;;;11.15;6.15;;;17.50;99.90;;;;;;5019054;28;20033;-39
2023/06/22 03:22:37;;;;;;;12.43;6.43;;;17.50;99.90;;;;;;5021532;28;20021;-41
2023/06/22 03:25:02;;;;;;;13.40;6.80;;;17.40;99.90;;;;;;5021195;28;20045;-34
2023/06/22 03:27:28;;;;;;;10.82;6.38;;;17.40;99.90;;;;;;5025003;28;20863;-35
2023/06/22 03:29:54;;;;;;;15.60;7.10;;;17.30;99.90;;;;;;5018881;28;20382;-33
2023/06/22 03:32:19;;;;;;;11.98;7.32;;;17.20;99.90;;;;;;5021632;28;20038;-33
2023/06/22 03:34:49;;;;;;;13.30;7.65;;;17.20;99.90;;;;;;5011448;28;20033;-34
2023/06/22 03:37:14;;;;;;;13.50;7.78;;;17.30;99.90;;;;;;5022622;28;20482;-33
2023/06/22 03:39:41;;;;;;;12.70;7.60;;;17.20;99.90;;;;;;5019279;28;20041;-35
2023/06/22 03:42:07;;;;;;;9.95;7.28;;;17.20;99.90;;;;;;5021105;28;20076;-33
2023/06/22 03:44:33;;;;;;;10.88;6.82;;;17.40;99.90;;;;;;5023620;28;20025;-33
2023/06/22 03:46:58;;;;;;;12.70;7.10;;;17.40;99.90;;;;;;5023974;28;20605;-33
2023/06/22 03:49:24;;;;;;;11.43;6.82;;;17.40;99.90;;;;;;5019324;28;20033;-33
2023/06/22 03:51:50;;;;;;;11.38;7.15;;;17.40;99.90;;;;;;5017802;28;20545;-38
2023/06/22 03:54:15;;;;;;;14.90;7.53;;;17.40;99.90;;;;;;5019391;28;20025;-36
2023/06/22 03:56:41;;;;;;;11.90;7.38;;;17.40;99.90;;;;;;5022073;28;20058;-34
2023/06/22 03:59:06;;;;;;;11.38;6.68;;;17.30;99.90;;;;;;5018248;28;20442;-36
2023/06/22 04:01:32;;;;;;;12.77;7.78;;;17.40;99.90;;;;;;5018376;28;20060;-34
2023/06/22 04:03:58;;;;;;;12.07;7.20;;;17.40;99.90;;;;;;5018428;28;20045;-33
2023/06/22 04:06:23;;;;;;;12.68;6.75;;;17.60;99.90;;;;;;5015878;28;20080;-35
2023/06/22 04:08:50;;;;;;;11.27;7.18;;;17.70;99.90;;;;;;5020430;28;20585;-33
2023/06/22 04:11:18;;;;;;;15.00;7.47;;;17.80;99.90;;;;;;5022532;28;20077;-33
2023/06/22 04:13:44;;;;;;;14.47;7.97;;;17.70;99.90;;;;;;5016376;28;20029;-33
2023/06/22 04:16:09;;;;;;;11.95;7.22;;;17.70;99.90;;;;;;5020776;28;20282;-33
2023/06/22 04:18:35;;;;;;;10.38;7.45;;;17.70;99.90;;;;;;5018682;28;20128;-33
2023/06/22 04:21:01;;;;;;;12.30;7.38;;;17.70;99.90;;;;;;5020424;28;20029;-36
2023/06/22 04:23:27;;;;;;;9.90;7.05;;;17.70;99.90;;;;;;5019223;28;20029;-35
2023/06/22 04:25:53;;;;;;;12.32;7.47;;;17.80;99.90;;;;;;5018968;28;20052;-34
2023/06/22 04:28:18;;;;;;;12.05;7.10;;;17.80;99.90;;;;;;5019330;28;20021;-38
2023/06/22 04:30:47;;;;;;;11.52;7.45;;;17.90;99.90;;;;;;5017951;28;20036;-33
2023/06/22 04:33:16;;;;;;;13.07;7.65;;;17.90;99.90;;;;;;5020434;28;20379;-32
2023/06/22 04:35:44;;;;;;;12.13;8.00;;;18.00;99.90;;;;;;5022206;28;20044;-43
2023/06/22 04:38:10;;;;;;;;;;;18.00;99.90;;;;;;5021866;28;20017;-43
2023/06/22 04:40:36;;;;;;;12.50;7.65;;;17.90;99.90;;;;;;5020144;28;19963;-43
2023/06/22 04:43:02;;;;;;;14.50;8.00;;;17.90;99.90;;;;;;5017589;28;20136;-42
2023/06/22 04:45:31;;;;;;;11.70;7.70;;;18.00;99.90;;;;;;5020414;28;20494;-41
2023/06/22 04:47:57;;;;;;;11.57;7.80;;;18.00;99.90;;;;;;5020745;28;20034;-42
2023/06/22 04:50:23;;;;;;;14.52;7.63;;;18.10;99.90;;;;;;5019471;28;20064;-36
2023/06/22 04:52:49;;;;;;;11.98;7.65;;;18.20;99.90;;;;;;5018630;28;20039;-42
2023/06/22 04:55:19;;;;;;;12.75;7.90;;;18.20;99.90;;;;;;5019198;28;20826;-41
2023/06/22 04:57:48;;;;;;;13.85;7.63;;;18.20;99.90;;;;;;4999865;28;20033;-41
2023/06/22 05:00:19;;;;;;;13.52;7.47;;;18.20;99.90;;;;;;5026150;28;20029;-43
2023/06/22 05:02:46;;;;;;;11.25;7.78;;;18.20;99.90;;;;;;5024742;28;20034;-43
2023/06/22 05:05:15;;;;;;;11.48;7.70;;;18.30;99.90;;;;;;5023758;28;20029;-42
2023/06/22 05:07:45;;;;;;;13.45;8.23;;;18.40;99.90;;;;;;5025759;28;20128;-43
2023/06/22 05:10:14;;;;;;;17.20;8.63;;;18.40;99.90;;;;;;5024054;28;20025;-40
2023/06/22 05:12:41;;;;;;;12.32;7.70;;;18.50;99.90;;;;;;5024993;28;20029;-40
2023/06/22 05:15:09;;;;;;;16.55;7.95;;;18.50;99.90;;;;;;5028340;28;20518;-43
2023/06/22 05:17:36;;;;;;;15.05;8.18;;;18.70;99.90;;;;;;5027851;28;20040;-43
2023/06/22 05:20:06;;;;;;;14.27;7.57;;;18.70;99.90;;;;;;5025905;28;20045;-42
2023/06/22 05:22:31;;;;;;;16.23;8.35;;;18.80;99.90;;;;;;5028347;28;20032;-43
2023/06/22 05:24:57;;;;;;;15.05;7.93;;;19.00;99.90;;;;;;5028303;28;20091;-43
2023/06/22 05:27:22;;;;;;;15.52;8.43;;;19.10;99.90;;;;;;5025569;28;20033;-35
2023/06/22 05:29:48;;;;;;;13.35;8.27;;;19.20;99.90;;;;;;5026929;28;20025;-44
2023/06/22 05:32:14;;;;;;;13.88;7.60;;;19.20;99.90;;;;;;5025450;28;20128;-42
2023/06/22 05:34:39;;;;;;;14.18;8.02;;;19.20;99.90;;;;;;5023989;28;20576;-42
2023/06/22 05:37:06;;;;;;;13.15;7.90;;;19.30;99.90;;;;;;5022201;28;20487;-39
2023/06/22 05:39:31;;;;;;;13.48;8.27;;;19.40;99.90;;;;;;5027115;28;20037;-43
2023/06/22 05:41:57;;;;;;;11.63;8.02;;;19.50;99.90;;;;;;5016799;28;20050;-42
2023/06/22 05:44:23;;;;;;;11.43;7.40;;;19.60;99.90;;;;;;5008134;28;20354;-38
2023/06/22 05:46:48;;;;;;;11.43;6.80;;;19.60;99.90;;;;;;5006112;28;20041;-35
2023/06/22 05:49:14;;;;;;;10.95;7.15;;;19.80;99.90;;;;;;5012717;28;20092;-35
2023/06/22 05:51:41;;;;;;;11.02;7.18;;;19.90;99.90;;;;;;5005324;28;20022;-34
2023/06/22 05:54:07;;;;;;;10.45;5.50;;;20.00;99.90;;;;;;5006557;28;20104;-34
2023/06/22 05:56:33;;;;;;;9.75;5.90;;;20.10;99.90;;;;;;5013688;28;20503;-36
2023/06/22 05:58:59;;;;;;;9.05;6.47;;;20.30;99.90;;;;;;5006325;28;20069;-33
2023/06/22 06:01:25;;;;;;;8.45;5.20;;;20.30;99.90;;;;;;5007077;28;20026;-34
2023/06/22 06:03:52;;;;;;;10.25;5.38;;;20.40;99.90;;;;;;5010184;28;20061;-37
2023/06/22 06:06:20;;;;;;;9.07;6.07;;;20.60;99.90;;;;;;5009060;28;20033;-34
2023/06/22 06:08:46;;;;;;;11.43;5.70;;;20.70;99.90;;;;;;5008906;28;20439;-37
2023/06/22 06:11:12;;;;;;;11.20;5.40;;;20.70;99.90;;;;;;5006294;28;20030;-34
2023/06/22 06:13:37;;;;;;;10.05;5.53;;;20.70;99.90;;;;;;5009315;28;20021;-34
2023/06/22 06:16:03;;;;;;;7.93;5.25;;;20.80;99.90;;;;;;5000502;28;20033;-34
2023/06/22 06:18:29;;;;;;;10.68;5.43;;;20.90;99.90;;;;;;5010006;28;20026;-34
2023/06/22 06:20:54;;;;;;;10.00;5.80;;;20.90;99.90;;;;;;5006908;28;20068;-34
2023/06/22 06:23:20;;;;;;;10.73;5.88;;;21.00;99.90;;;;;;5003764;28;20042;-36
2023/06/22 06:25:45;;;;;;;11.77;5.70;;;21.10;99.90;;;;;;5004064;28;20439;-37
2023/06/22 06:28:11;;;;;;;8.50;5.43;;;21.20;99.90;;;;;;5002513;28;20529;-35
2023/06/22 06:30:37;;;;;;;7.78;4.90;;;21.40;99.90;;;;;;5005075;28;20439;-37
2023/06/22 06:33:04;;;;;;;8.10;5.40;;;21.60;99.90;;;;;;5007786;28;20698;-35
2023/06/22 06:35:30;;;;;;;9.85;5.65;;;21.70;99.90;;;;;;5001681;28;20030;-36
2023/06/22 06:37:56;;;;;;;10.30;5.50;;;21.80;99.90;;;;;;5000764;28;20068;-34
2023/06/22 06:40:22;;;;;;;10.38;5.40;;;21.70;99.90;;;;;;5002942;28;20117;-35
2023/06/22 06:42:48;;;;;;;10.45;5.65;;;21.80;99.90;;;;;;5013409;28;20179;-34
2023/06/22 06:45:19;;;;;;;10.65;5.50;;;21.80;99.90;;;;;;5017744;28;20485;-39
2023/06/22 06:47:45;;;;;;;7.53;4.78;;;21.90;99.90;;;;;;5006644;28;20087;-35
2023/06/22 06:50:12;;;;;;;12.43;6.00;;;22.00;99.90;;;;;;5022618;28;20022;-33
2023/06/22 06:52:37;;;;;;;8.90;5.97;;;22.20;99.90;;;;;;5024991;28;20022;-34
2023/06/22 06:55:08;;;;;;;9.10;5.05;;;22.20;99.90;;;;;;5022957;28;20018;-39
2023/06/22 06:57:34;;;;;;;10.65;5.10;;;22.20;99.90;;;;;;5021702;28;20029;-42
2023/06/22 06:59:59;;;;;;;14.82;5.90;;;22.30;99.90;;;;;;5021604;28;20497;-40
2023/06/22 07:02:27;;;;;;;9.82;5.43;;;22.40;99.90;;;;;;5025497;28;20112;-43
2023/06/22 07:04:55;;;;;;;9.13;5.22;;;22.50;99.90;;;;;;5021954;28;20481;-39
2023/06/22 07:07:21;;;;;;;15.20;6.28;;;22.60;99.90;;;;;;5024306;28;20052;-42
2023/06/22 07:09:46;;;;;;;6.07;4.72;;;22.70;99.90;;;;;;5020623;28;20033;-40
2023/06/22 07:12:12;;;;;;;10.45;5.40;;;22.70;99.90;;;;;;5023833;28;20474;-43
2023/06/22 07:14:38;;;;;;;8.93;5.00;;;22.90;99.90;;;;;;5025048;28;20030;-43
2023/06/22 07:17:03;;;;;;;9.68;4.68;;;23.00;99.90;;;;;;5022075;28;20037;-40
2023/06/22 07:19:30;;;;;;;8.00;5.68;;;23.10;99.90;;;;;;5006482;28;20158;-39
2023/06/22 07:21:55;;;;;;;8.07;4.70;;;23.20;99.90;;;;;;5024285;28;20487;-42
2023/06/22 07:24:22;;;;;;;7.03;5.28;;;23.40;99.90;;;;;;5005146;28;20080;-43
2023/06/22 07:26:49;;;;;;;8.50;5.05;;;23.40;99.90;;;;;;5021419;28;20030;-40
2023/06/22 07:29:16;;;;;;;12.02;5.32;;;23.50;99.90;;;;;;5021147;28;20043;-43
2023/06/22 07:31:42;;;;;;;7.70;4.88;;;23.60;99.90;;;;;;5020119;28;20026;-42
2023/06/22 07:34:08;;;;;;;10.10;4.68;;;23.80;99.90;;;;;;5017755;28;20041;-43
2023/06/22 07:36:35;;;;;;;8.68;4.43;;;23.90;99.90;;;;;;5018520;28;20033;-39
2023/06/22 07:39:02;;;;;;;9.80;4.68;;;23.90;99.90;;;;;;5019154;28;20045;-40
2023/06/22 07:41:28;;;;;;;10.60;4.82;;;24.10;99.90;;;;;;5019465;28;20525;-41
2023/06/22 07:43:54;;;;;;;13.55;5.93;;;24.30;99.90;;;;;;5018969;28;20038;-42
2023/06/22 07:46:19;;;;;;;9.18;5.05;;;24.40;99.90;;;;;;5018782;28;20091;-43
2023/06/22 07:48:45;;;;;;;12.18;5.22;;;24.40;99.90;;;;;;5021626;28;20037;-42
2023/06/22 07:51:14;;;;;;;9.82;5.15;;;24.50;99.90;;;;;;5017052;28;20041;-40
2023/06/22 07:53:44;;;;;;;7.82;4.95;;;24.60;99.90;;;;;;5022437;28;20103;-42
2023/06/22 07:56:13;;;;;;;10.65;5.20;;;24.80;99.90;;;;;;5017109;28;20033;-42
2023/06/22 07:58:38;;;;;;;10.23;5.00;;;24.90;99.90;;;;;;5021856;28;20037;-41
2023/06/22 08:01:04;;;;;;;9.52;4.78;;;25.10;99.90;;;;;;5001421;28;20372;-43
2023/06/22 08:03:30;;;;;;;6.63;4.40;;;25.30;99.90;;;;;;5023098;28;20538;-33
2023/06/22 08:05:55;;;;;;;8.48;5.00;;;25.20;99.90;;;;;;5025412;28;20548;-32
2023/06/22 08:08:21;;;;;;;10.30;5.65;;;25.40;99.90;;;;;;5025102;28;20041;-32
2023/06/22 08:10:47;;;;;;;8.93;4.82;;;25.50;99.90;;;;;;5024615;28;20025;-31
2023/06/22 08:13:12;;;;;;;6.07;4.80;;;25.50;99.90;;;;;;5023446;28;20077;-32
2023/06/22 08:15:38;;;;;;;9.55;5.53;;;25.50;99.90;;;;;;5018290;28;20025;-32
2023/06/22 08:18:04;;;;;;;11.68;5.50;;;25.70;99.90;;;;;;5024612;28;20033;-33
2023/06/22 08:20:29;;;;;;;8.60;5.03;;;25.80;99.90;;;;;;5024016;28;20037;-37
2023/06/22 08:22:55;;;;;;;11.38;5.40;;;26.00;99.90;;;;;;5024331;28;20037;-33
2023/06/22 08:25:21;;;;;;;8.05;4.80;;;25.90;99.90;;;;;;5013219;28;20034;-32
2023/06/22 08:27:48;;;;;;;14.25;5.50;;;25.90;99.90;;;;;;5019766;28;20025;-32
2023/06/22 08:30:14;;;;;;;10.82;5.32;;;26.10;99.90;;;;;;5021517;28;20029;-32
2023/06/22 08:32:40;;;;;;;9.00;5.03;;;26.10;99.90;;;;;;5022490;28;20025;-31
2023/06/22 08:35:09;;;;;;;13.63;5.40;;;26.10;99.90;;;;;;5019806;28;20045;-35
2023/06/22 08:37:35;;;;;;;12.18;5.10;;;26.20;99.90;;;;;;5023456;28;20029;-31
2023/06/22 08:40:10;;;;;;;8.75;5.60;;;26.30;99.90;;;;;;5021182;28;20042;-32
2023/06/22 08:42:36;;;;;;;9.57;4.65;;;26.40;99.90;;;;;;5021984;28;20054;-32
2023/06/22 08:45:02;;;;;;;19.75;5.80;;;26.60;99.90;;;;;;5024375;28;20060;-32
2023/06/22 08:47:31;;;;;;;12.52;5.35;;;26.60;99.90;;;;;;5024047;28;20491;-32
2023/06/22 08:49:57;;;;;;;10.18;5.30;;;26.70;99.90;;;;;;5019683;28;20100;-35
2023/06/22 08:52:23;;;;;;;9.50;5.35;;;26.70;99.90;;;;;;5024068;28;20151;-31
2023/06/22 08:54:49;;;;;;;12.35;5.20;;;26.60;99.90;;;;;;5017569;28;20033;-32
2023/06/22 08:57:15;;;;;;;9.93;4.80;;;26.80;99.90;;;;;;5020856;28;20037;-32
2023/06/22 08:59:45;;;;;;;10.70;5.05;;;27.10;99.90;;;;;;5020859;28;20100;-31
2023/06/22 09:02:10;;;;;;;10.02;4.70;;;27.50;99.90;;;;;;5013418;28;20398;-32
2023/06/22 09:04:36;;;;;;;9.40;4.80;;;27.40;99.90;;;;;;5024658;28;20025;-32
2023/06/22 09:07:03;;;;;;;11.27;5.10;;;27.30;99.90;;;;;;5006366;28;20037;-32
2023/06/22 09:09:29;;;;;;;11.18;5.05;;;27.30;99.90;;;;;;5002364;28;20021;-33
2023/06/22 09:11:54;;;;;;;9.55;4.90;;;27.80;99.90;;;;;;5022480;28;20033;-31
2023/06/22 09:14:20;;;;;;;12.05;5.40;;;28.20;99.90;;;;;;5020294;28;20034;-41
2023/06/22 09:16:46;;;;;;;9.55;4.93;;;28.10;99.90;;;;;;5021530;28;21219;-41
2023/06/22 09:19:12;;;;;;;10.23;5.00;;;27.90;99.90;;;;;;5019064;28;20034;-42
2023/06/22 09:21:37;;;;;;;10.07;4.53;;;27.90;99.90;;;;;;5021086;28;20103;-41
2023/06/22 09:24:04;;;;;;;11.18;5.00;;;27.90;99.90;;;;;;5022411;28;20030;-39
2023/06/22 09:26:29;;;;;;;8.27;5.22;;;27.80;99.90;;;;;;5018537;28;20030;-42
2023/06/22 09:28:55;;;;;;;8.18;4.60;;;27.80;99.90;;;;;;5018347;28;20137;-39
2023/06/22 09:31:26;;;;;;;9.45;4.78;;;27.80;99.90;;;;;;5020456;28;20455;-40
2023/06/22 09:33:55;;;;;;;7.57;4.50;;;28.00;99.90;;;;;;5023197;28;20026;-42
2023/06/22 09:36:23;;;;;;;8.90;5.10;;;28.20;99.90;;;;;;5020054;28;20037;-38
2023/06/22 09:38:55;;;;;;;11.65;4.75;;;28.20;99.90;;;;;;5020196;28;20026;-39
2023/06/22 09:41:20;;;;;;;9.50;4.93;;;28.20;99.90;;;;;;5020591;28;20384;-40
2023/06/22 09:43:47;;;;;;;10.52;4.95;;;28.20;99.90;;;;;;5014903;28;20057;-39
2023/06/22 09:46:15;;;;;;;7.22;4.70;;;28.30;99.90;;;;;;5021978;28;20898;-40
2023/06/22 09:48:40;;;;;;;12.57;4.90;;;28.40;99.90;;;;;;5026097;28;20045;-39
2023/06/22 09:51:06;;;;;;;9.63;4.70;;;28.30;99.90;;;;;;5025832;28;20801;-39
2023/06/22 09:53:31;;;;;;;11.07;5.35;;;28.30;99.90;;;;;;5022641;28;20029;-41
2023/06/22 09:55:57;;;;;;;10.50;5.72;;;28.50;99.90;;;;;;5006601;28;20048;-39
2023/06/22 09:58:23;;;;;;;10.57;5.13;;;28.60;99.90;;;;;;5023723;28;20035;-42
2023/06/22 10:00:49;;;;;;;10.35;5.57;;;28.70;99.90;;;;;;5023330;28;20549;-41
2023/06/22 10:03:14;;;;;;;10.75;4.75;;;28.70;99.90;;;;;;5023042;28;20025;-41
2023/06/22 10:05:40;;;;;;;8.27;4.90;;;29.10;99.90;;;;;;5023956;28;20038;-41
2023/06/22 10:08:07;;;;;;;11.15;5.32;;;29.50;99.90;;;;;;5024713;28;20032;-36
2023/06/22 10:10:33;;;;;;;10.57;5.90;;;29.30;99.90;;;;;;5025509;28;20072;-41
2023/06/22 10:13:09;;;;;;;12.65;5.10;;;29.20;99.90;;;;;;5023149;28;20061;-41
2023/06/22 10:15:34;;;;;;;11.13;5.57;;;28.90;99.90;;;;;;5022381;28;20025;-41
2023/06/22 10:18:00;;;;;;;11.82;5.55;;;29.00;99.90;;;;;;5024916;28;20029;-41
2023/06/22 10:20:26;;;;;;;9.77;5.05;;;28.90;99.90;;;;;;5021009;28;20124;-40
2023/06/22 10:22:51;;;;;;;9.57;4.63;;;29.20;99.90;;;;;;5021409;28;20029;-42
2023/06/22 10:25:17;;;;;;;11.15;4.93;;;29.10;99.90;;;;;;5022047;28;20044;-32
2023/06/22 10:27:44;;;;;;;11.77;5.43;;;29.30;99.90;;;;;;5027138;28;20031;-31
2023/06/22 10:30:12;;;;;;;9.63;4.90;;;29.30;99.90;;;;;;5023790;28;20021;-33
2023/06/22 10:32:39;;;;;;;10.63;5.50;;;29.60;99.90;;;;;;5020099;28;20503;-32
2023/06/22 10:35:05;;;;;;;7.07;4.97;;;29.80;99.90;;;;;;5023724;28;20030;-35
2023/06/22 10:37:30;;;;;;;9.77;5.22;;;30.10;99.90;;;;;;5031716;28;20050;-33
2023/06/22 10:39:56;;;;;;;9.30;5.93;;;30.10;99.90;;;;;;5020788;28;20391;-33
2023/06/22 10:42:22;;;;;;;8.57;5.18;;;30.00;99.90;;;;;;5023328;28;20493;-31
2023/06/22 10:44:47;;;;;;;9.18;5.25;;;30.00;99.90;;;;;;5027274;28;20036;-31
2023/06/22 10:47:13;;;;;;;10.00;5.22;;;30.30;99.90;;;;;;5025140;28;20033;-32
2023/06/22 10:49:39;;;;;;;10.35;5.07;;;30.80;99.90;;;;;;5026905;28;20030;-32
2023/06/22 10:52:08;;;;;;;11.98;5.03;;;31.30;99.90;;;;;;5029991;28;20026;-32
2023/06/22 10:54:35;;;;;;;9.00;5.05;;;31.70;99.90;;;;;;5024238;28;20036;-33
2023/06/22 10:57:01;;;;;;;10.25;5.65;;;31.50;99.90;;;;;;5022430;28;20033;-32
2023/06/22 10:59:28;;;;;;;9.77;4.77;;;31.60;99.90;;;;;;5007817;28;20406;-32
2023/06/22 11:01:55;;;;;;;10.20;5.10;;;31.50;99.90;;;;;;5027103;28;20038;-32
2023/06/22 11:04:20;;;;;;;11.23;5.03;;;31.70;99.90;;;;;;5022382;28;20021;-33
2023/06/22 11:06:47;;;;;;;7.53;5.00;;;31.80;99.90;;;;;;5026968;28;20025;-34
2023/06/22 11:09:18;;;;;;;13.02;5.28;;;31.70;99.90;;;;;;5027455;28;20451;-32
2023/06/22 11:11:44;;;;;;;16.60;6.07;;;32.20;99.90;;;;;;5021945;28;20065;-34
2023/06/22 11:14:09;;;;;;;9.00;5.10;;;32.30;99.90;;;;;;5026987;28;20056;-32
2023/06/22 11:16:35;;;;;;;11.07;5.10;;;32.00;99.90;;;;;;5025229;28;20041;-34
2023/06/22 11:19:00;;;;;;;10.15;4.90;;;32.00;99.90;;;;;;5022847;28;20604;-33
2023/06/22 11:21:26;;;;;;;10.27;5.63;;;32.20;99.90;;;;;;5026160;28;20112;-32
2023/06/22 11:23:52;;;;;;;10.23;5.05;;;32.20;99.90;;;;;;5022322;28;20034;-35
2023/06/22 11:26:17;;;;;;;10.82;6.18;;;32.50;99.90;;;;;;5025033;28;20388;-31
2023/06/22 11:28:43;;;;;;;9.32;5.15;;;32.20;99.90;;;;;;5023821;28;20044;-31
2023/06/22 11:31:09;;;;;;;11.55;5.53;;;32.40;99.90;;;;;;5021444;28;20129;-31
2023/06/22 11:33:34;;;;;;;11.60;5.32;;;32.70;99.90;;;;;;5022807;28;20033;-37
2023/06/22 11:36:00;;;;;;;15.65;5.13;;;32.90;99.90;;;;;;5021578;28;20058;-31
2023/06/22 11:38:26;;;;;;;10.45;4.50;;;33.00;99.90;;;;;;5002082;28;20037;-34
2023/06/22 11:40:51;;;;;;;7.45;5.50;;;33.10;99.90;;;;;;5024241;28;20708;-32
2023/06/22 11:43:17;;;;;;;9.43;4.78;;;33.40;99.90;;;;;;5019202;28;20050;-31
2023/06/22 11:45:43;;;;;;;11.10;5.55;;;33.40;99.90;;;;;;5024369;28;20495;-38
2023/06/22 11:48:08;;;;;;;10.20;4.63;;;33.30;99.90;;;;;;5004100;28;20037;-31
2023/06/22 11:50:35;;;;;;;11.35;5.40;;;33.30;99.90;;;;;;5024689;28;20036;-32
2023/06/22 11:53:04;;;;;;;;;;;33.50;99.90;;;;;;5028645;28;20033;-31
2023/06/22 11:55:30;;;;;;;13.35;5.18;;;33.20;99.90;;;;;;5023740;28;20480;-31
2023/06/22 11:57:59;;;;;;;12.57;5.53;;;32.60;99.90;;;;;;5011789;28;20033;-31
2023/06/22 12:00:25;;;;;;;13.07;5.57;;;32.10;99.90;;;;;;5009780;28;20034;-40
2023/06/22 12:02:51;;;;;;;10.38;5.65;;;31.70;99.90;;;;;;5017561;28;20068;-38
2023/06/22 12:05:19;;;;;;;10.95;5.85;;;31.80;99.90;;;;;;5019415;28;20022;-41
2023/06/22 12:07:45;;;;;;;13.50;6.05;;;31.20;99.90;;;;;;5024196;28;20399;-42
2023/06/22 12:10:10;;;;;;;8.98;5.50;;;30.80;99.90;;;;;;5020072;28;20025;-39
2023/06/22 12:12:36;;;;;;;12.73;5.60;;;30.60;99.90;;;;;;5024635;28;20393;-42
2023/06/22 12:15:03;;;;;;;12.70;6.03;;;30.90;99.90;;;;;;5018008;28;20033;-37
2023/06/22 12:17:29;;;;;;;10.45;5.47;;;31.30;99.90;;;;;;5022110;28;20033;-42
2023/06/22 12:19:55;;;;;;;13.02;6.20;;;31.40;99.90;;;;;;5023349;28;20037;-41
2023/06/22 12:22:21;;;;;;;10.15;5.25;;;31.50;99.90;;;;;;5024977;28;20565;-36
2023/06/22 12:24:47;;;;;;;11.63;5.95;;;31.70;99.90;;;;;;5020800;28;20041;-41
2023/06/22 12:27:12;;;;;;;12.18;5.20;;;31.70;99.90;;;;;;5017271;28;20053;-41
2023/06/22 12:29:38;;;;;;;9.18;4.80;;;31.90;99.90;;;;;;5017064;28;20025;-41
2023/06/22 12:32:04;;;;;;;10.77;5.43;;;32.10;99.90;;;;;;5022094;28;20033;-40
2023/06/22 12:34:30;;;;;;;9.15;5.03;;;32.10;99.90;;;;;;5004329;28;20117;-42
2023/06/22 12:36:55;;;;;;;11.50;5.32;;;32.20;99.90;;;;;;5021321;28;20109;-41
2023/06/22 12:39:21;;;;;;;10.68;5.60;;;32.70;99.90;;;;;;5018614;28;20523;-41